X  Sluiten METAR luchtvaart weer gegevens      EHGG Eelde Airport
Temperatuur
18°C Temperatuur
17°C Dauwpunt
94% Vochtigheid



Wind
5 KM/U
3 MPH
1 M/S
3 KTS



130°
ZO
Huidig weer

Helder Helder
Luchtdruk 1006.92 (hPa) - 29.73 (inHg)
Zicht 5 (mijl) - 8 (km)
Vliegveld
Vliegveld code EHGG

Locatie : Eelde Airport
Afstand: 32 (km)

Metar:
EHGG 242255Z AUTO 13003KT 100V160 8000 NCD 18/17 Q1007

Tijd: 25-06-2022 00:55 CEST